Time;durP1;ratioP1;P1;durP2;ratioP2;P2;SDS_P1;SDS_P2;PMS_P1;PMS_P2;Temp;Humidity;BMP_temperature;BMP_pressure;BME280_temperature;BME280_humidity;BME280_pressure;Samples;Min_cycle;Max_cycle;Signal;HPM_P1;HPM_P2
2022/03/22 00:01:26;;;;;;;48.85;35.22;;;7.90;99.90;;;;;;5033125;28;20041;-67
2022/03/22 00:03:52;;;;;;;49.15;34.88;;;7.80;99.90;;;;;;5033623;28;20590;-67
2022/03/22 00:06:19;;;;;;;52.75;35.00;;;7.20;99.90;;;;;;5033143;28;20049;-67
2022/03/22 00:08:45;;;;;;;49.20;35.08;;;7.20;99.90;;;;;;5016110;28;20049;-67
2022/03/22 00:11:11;;;;;;;55.35;35.97;;;7.60;99.90;;;;;;5033329;28;20068;-67
2022/03/22 00:13:38;;;;;;;54.28;35.83;;;7.50;99.90;;;;;;5015068;28;20265;-67
2022/03/22 00:16:04;;;;;;;49.97;35.30;;;7.50;99.90;;;;;;5015007;28;20149;-67
2022/03/22 00:18:30;;;;;;;52.50;35.30;;;7.30;99.90;;;;;;5033366;28;20045;-67
2022/03/22 00:20:57;;;;;;;55.75;36.95;;;7.40;99.90;;;;;;5033187;28;20564;-67
2022/03/22 00:23:24;;;;;;;54.45;35.90;;;7.70;99.90;;;;;;5032405;28;20041;-67
2022/03/22 00:25:50;;;;;;;50.10;36.38;;;;;;;;;;5014933;28;20041;-67
2022/03/22 00:28:16;;;;;;;56.05;36.13;;;7.60;99.90;;;;;;5033053;28;20041;-67
2022/03/22 00:30:44;;;;;;;52.60;37.08;;;8.00;99.90;;;;;;5033097;28;20459;-67
2022/03/22 00:33:10;;;;;;;51.40;36.35;;;7.30;99.90;;;;;;5015043;28;20084;-67
2022/03/22 00:35:38;;;;;;;52.35;35.95;;;7.50;99.90;;;;;;5032810;28;20091;-67
2022/03/22 00:38:06;;;;;;;51.15;35.58;;;7.40;99.90;;;;;;5032801;28;20084;-67
2022/03/22 00:40:32;;;;;;;53.17;36.03;;;7.50;99.90;;;;;;5032352;28;20049;-67
2022/03/22 00:42:58;;;;;;;50.92;35.58;;;7.30;99.90;;;;;;5033319;28;20103;-68
2022/03/22 00:45:31;;;;;;;52.33;35.42;;;7.30;99.90;;;;;;5031947;28;20515;-68
2022/03/22 00:47:58;;;;;;;52.17;37.90;;;7.50;99.90;;;;;;5032822;28;20116;-68
2022/03/22 00:50:36;;;;;;;49.33;36.80;;;7.10;99.90;;;;;;5031695;28;20405;-68
2022/03/22 00:53:04;;;;;;;50.55;36.97;;;7.20;99.90;;;;;;5015100;28;20037;-68
2022/03/22 00:55:30;;;;;;;51.70;36.13;;;7.30;99.90;;;;;;5032350;28;20042;-67
2022/03/22 00:57:57;;;;;;;56.03;36.72;;;7.30;99.90;;;;;;5014855;28;20041;-67
2022/03/22 01:00:25;;;;;;;51.13;37.10;;;7.30;99.90;;;;;;5032075;28;20045;-68
2022/03/22 01:02:55;;;;;;;49.78;35.72;;;7.20;99.90;;;;;;5014484;28;20061;-68
2022/03/22 01:05:23;;;;;;;52.75;36.60;;;7.00;99.90;;;;;;4982289;28;20432;-68
2022/03/22 01:07:50;;;;;;;55.97;37.55;;;7.20;99.90;;;;;;5032087;28;20045;-68
2022/03/22 01:10:18;;;;;;;56.20;36.83;;;7.10;99.90;;;;;;5032131;28;20045;-68
2022/03/22 01:12:44;;;;;;;59.42;37.38;;;7.10;99.90;;;;;;5015174;28;20120;-67
2022/03/22 01:15:16;;;;;;;53.83;37.42;;;7.10;99.90;;;;;;5031635;28;20111;-67
2022/03/22 01:17:46;;;;;;;52.58;38.92;;;7.10;99.90;;;;;;5014338;28;20041;-67
2022/03/22 01:20:13;;;;;;;64.97;38.88;;;6.60;99.90;;;;;;5014317;28;20048;-67
2022/03/22 01:22:41;;;;;;;54.97;38.25;;;6.70;99.90;;;;;;5031977;28;20044;-67
2022/03/22 01:25:09;;;;;;;55.42;37.95;;;7.00;99.90;;;;;;5031258;28;20504;-67
2022/03/22 01:27:36;;;;;;;59.70;37.95;;;7.00;99.90;;;;;;5014279;28;20053;-67
2022/03/22 01:30:02;;;;;;;57.85;37.97;;;;;;;;;;5031831;28;20048;-67
2022/03/22 01:32:27;;;;;;;57.13;38.95;;;6.90;99.90;;;;;;5031602;28;20042;-67
2022/03/22 01:34:53;;;;;;;59.20;38.22;;;7.20;99.90;;;;;;5032085;28;20029;-67
2022/03/22 01:37:19;;;;;;;52.28;37.60;;;;;;;;;;5031452;28;20504;-67
2022/03/22 01:39:45;;;;;;;51.40;36.85;;;7.20;99.90;;;;;;5031969;28;20389;-67
2022/03/22 01:42:11;;;;;;;48.30;36.47;;;6.70;99.90;;;;;;5031588;28;20130;-67
2022/03/22 01:44:36;;;;;;;52.10;36.90;;;7.10;99.90;;;;;;5030074;28;20041;-67
2022/03/22 01:47:03;;;;;;;51.85;36.70;;;8.20;99.90;;;;;;5031541;28;20055;-67
2022/03/22 01:49:29;;;;;;;50.90;36.42;;;7.00;99.90;;;;;;5031024;28;20033;-67
2022/03/22 01:51:55;;;;;;;52.63;36.88;;;;;;;;;;5013402;28;20117;-68
2022/03/22 01:54:21;;;;;;;53.35;37.28;;;;;;;;;;5031029;28;20310;-67
2022/03/22 01:56:49;;;;;;;54.10;37.75;;;7.10;99.90;;;;;;5031383;28;20529;-67
2022/03/22 01:59:15;;;;;;;52.92;38.13;;;6.90;99.90;;;;;;5031299;28;20083;-67
2022/03/22 02:07:13;;;;;;;51.13;37.35;;;7.10;99.90;;;;;;5005147;28;20174;-67
2022/03/22 02:09:38;;;;;;;52.80;36.97;;;6.90;99.90;;;;;;4996667;28;20383;-67
2022/03/22 02:12:05;;;;;;;51.35;37.08;;;6.90;99.90;;;;;;5031546;28;20041;-67
2022/03/22 02:14:30;;;;;;;52.67;36.95;;;6.80;99.90;;;;;;4996338;28;20047;-67
2022/03/22 02:16:56;;;;;;;53.55;38.05;;;;;;;;;;5013750;28;20049;-67
2022/03/22 02:19:22;;;;;;;52.30;38.25;;;;;;;;;;5030359;28;20077;-67
2022/03/22 02:21:55;;;;;;;50.05;36.80;;;7.00;99.90;;;;;;5013240;28;20064;-67
2022/03/22 02:24:21;;;;;;;50.00;38.10;;;;;;;;;;5012549;28;20176;-67
2022/03/22 02:26:46;;;;;;;55.70;36.83;;;6.80;99.90;;;;;;4997012;28;20069;-67
2022/03/22 02:29:12;;;;;;;52.10;37.47;;;;;;;;;;5012967;28;20168;-67
2022/03/22 02:31:38;;;;;;;50.20;37.33;;;;;;;;;;5030585;28;20046;-67
2022/03/22 02:34:04;;;;;;;52.33;37.55;;;;;;;;;;5030746;28;20500;-67
2022/03/22 02:36:30;;;;;;;50.33;37.60;;;;;;;;;;5012735;28;20128;-67
2022/03/22 02:38:56;;;;;;;49.63;37.03;;;7.00;99.90;;;;;;5030582;28;20382;-67
2022/03/22 02:41:24;;;;;;;54.85;37.63;;;6.70;99.90;;;;;;5012740;28;20049;-67
2022/03/22 02:43:51;;;;;;;49.90;38.10;;;6.60;99.90;;;;;;5012477;28;20041;-67
2022/03/22 02:46:17;;;;;;;56.05;38.17;;;;;;;;;;5012336;28;20051;-67
2022/03/22 02:48:44;;;;;;;60.33;38.88;;;6.50;99.90;;;;;;5030756;28;20037;-67
2022/03/22 02:51:11;;;;;;;57.25;39.13;;;6.70;99.90;;;;;;5011855;28;20037;-67
2022/03/22 02:53:36;;;;;;;49.05;38.03;;;6.40;99.90;;;;;;5012526;28;20041;-67
2022/03/22 02:56:03;;;;;;;50.35;37.28;;;;;;;;;;5012751;28;20697;-67
2022/03/22 02:58:28;;;;;;;53.97;38.38;;;6.40;99.90;;;;;;5012909;28;20393;-67
2022/03/22 03:00:54;;;;;;;50.72;38.42;;;6.20;99.90;;;;;;5012747;28;20573;-67
2022/03/22 03:03:22;;;;;;;53.95;38.90;;;6.10;99.90;;;;;;5011695;28;20519;-67
2022/03/22 03:05:49;;;;;;;59.00;39.53;;;6.30;99.90;;;;;;5012268;28;20045;-67
2022/03/22 03:08:15;;;;;;;59.13;39.35;;;;;;;;;;5012539;28;20041;-67
2022/03/22 03:10:42;;;;;;;52.95;38.00;;;5.90;99.90;;;;;;5029680;28;20250;-67
2022/03/22 03:13:08;;;;;;;52.05;39.33;;;;;;;;;;5012571;28;20048;-67
2022/03/22 03:15:34;;;;;;;51.55;37.72;;;5.90;99.90;;;;;;5029500;28;20037;-67
2022/03/22 03:18:00;;;;;;;59.85;39.30;;;;;;;;;;5013055;28;20103;-67
2022/03/22 03:20:26;;;;;;;53.33;39.63;;;6.10;99.90;;;;;;5029203;28;20091;-66
2022/03/22 03:22:52;;;;;;;50.83;38.03;;;;;;;;;;5030099;28;20142;-66
2022/03/22 03:25:18;;;;;;;58.13;38.30;;;6.20;99.90;;;;;;5011651;28;20040;-67
2022/03/22 03:27:44;;;;;;;55.78;37.90;;;6.40;99.90;;;;;;5030578;28;20034;-67
2022/03/22 03:30:11;;;;;;;53.08;37.92;;;6.30;99.90;;;;;;5011733;28;20486;-67
2022/03/22 03:32:37;;;;;;;54.10;38.33;;;;;;;;;;5011969;28;20047;-67
2022/03/22 03:35:04;;;;;;;52.92;38.13;;;6.20;99.90;;;;;;5029841;28;20041;-67
2022/03/22 03:37:37;;;;;;;52.38;38.20;;;6.10;99.90;;;;;;5012093;28;20045;-67
2022/03/22 03:40:04;;;;;;;50.88;37.40;;;6.30;99.90;;;;;;5029516;28;20041;-67
2022/03/22 03:42:30;;;;;;;57.53;40.05;;;6.40;99.90;;;;;;5029808;28;20519;-67
2022/03/22 03:47:40;;;;;;;55.88;38.47;;;5.90;99.90;;;;;;5011702;28;20041;-67
2022/03/22 03:50:08;;;;;;;54.83;38.17;;;5.90;99.90;;;;;;5012074;28;20540;-67
2022/03/22 03:52:37;;;;;;;52.90;37.95;;;6.00;99.90;;;;;;5012220;28;20041;-67
2022/03/22 03:55:06;;;;;;;57.67;39.30;;;6.10;99.90;;;;;;5011716;28;20069;-67
2022/03/22 03:57:32;;;;;;;52.80;39.15;;;6.00;99.90;;;;;;5029574;28;20049;-67
2022/03/22 03:59:58;;;;;;;56.30;38.97;;;;;;;;;;5030060;28;20435;-67
2022/03/22 04:02:24;;;;;;;52.63;38.35;;;6.20;99.90;;;;;;5029196;28;20050;-67
2022/03/22 04:04:55;;;;;;;56.70;38.50;;;6.00;99.90;;;;;;5011866;28;20393;-67
2022/03/22 04:07:23;;;;;;;51.00;37.00;;;4.60;99.90;;;;;;5011690;28;20203;-67
2022/03/22 04:09:49;;;;;;;52.72;38.63;;;6.60;99.90;;;;;;5029846;28;20037;-67
2022/03/22 04:12:15;;;;;;;55.65;38.97;;;5.90;99.90;;;;;;5011920;28;20045;-67
2022/03/22 04:14:41;;;;;;;54.75;38.53;;;5.60;99.90;;;;;;5029003;28;20404;-67
2022/03/22 04:17:08;;;;;;;55.15;39.10;;;;;;;;;;5029312;28;20134;-67
2022/03/22 04:19:35;;;;;;;57.40;38.53;;;5.80;99.90;;;;;;5011983;28;20149;-67
2022/03/22 04:22:04;;;;;;;52.63;38.10;;;5.80;99.90;;;;;;5012356;28;20041;-68
2022/03/22 04:24:30;;;;;;;57.55;38.00;;;5.90;99.90;;;;;;5030176;28;20126;-67
2022/03/22 04:32:41;;;;;;;53.20;37.75;;;5.70;99.90;;;;;;5015188;28;20128;-67
2022/03/22 04:32:42;;;;;;;57.63;38.53;;;;;;;;;;5032419;28;20120;-67
2022/03/22 04:35:10;;;;;;;55.83;38.17;;;6.50;99.90;;;;;;5032787;28;20044;-67
2022/03/22 04:37:37;;;;;;;54.65;37.10;;;;;;;;;;5014840;28;20045;-67
2022/03/22 04:40:04;;;;;;;55.42;37.28;;;5.90;99.90;;;;;;5014962;28;20045;-67
2022/03/22 04:42:29;;;;;;;56.88;38.10;;;6.00;99.90;;;;;;5032367;28;20038;-67
2022/03/22 04:44:55;;;;;;;54.75;37.75;;;;;;;;;;5032727;28;20048;-67
2022/03/22 04:47:22;;;;;;;56.28;37.33;;;;;;;;;;5014396;28;20049;-67
2022/03/22 04:49:48;;;;;;;56.53;37.50;;;;;;;;;;5014932;28;20392;-67
2022/03/22 04:57:43;;;;;;;57.45;38.13;;;;;;;;;;5032852;28;20052;-67
2022/03/22 05:00:10;;;;;;;53.75;36.90;;;5.90;99.90;;;;;;5031644;28;20037;-67
2022/03/22 05:02:36;;;;;;;54.88;38.53;;;;;;;;;;4998137;28;20093;-67
2022/03/22 05:05:02;;;;;;;55.25;38.22;;;;;;;;;;5014931;28;20053;-67
2022/03/22 05:07:28;;;;;;;56.20;38.65;;;;;;;;;;5014756;28;20083;-67
2022/03/22 05:09:53;;;;;;;56.08;38.25;;;6.10;99.90;;;;;;5032884;28;20041;-67
2022/03/22 05:12:19;;;;;;;56.90;36.67;;;;;;;;;;5013941;28;20414;-66
2022/03/22 05:14:50;;;;;;;60.00;37.67;;;5.50;99.90;;;;;;5031783;28;20034;-68
2022/03/22 05:17:23;;;;;;;53.55;37.80;;;5.90;99.90;;;;;;5032176;28;20044;-67
2022/03/22 05:19:50;;;;;;;54.03;38.28;;;5.80;99.90;;;;;;5014364;28;20044;-67
2022/03/22 05:22:19;;;;;;;57.40;41.03;;;5.10;99.90;;;;;;5032358;28;20045;-67
2022/03/22 05:24:46;;;;;;;55.03;38.20;;;6.20;99.90;;;;;;5009825;28;20045;-67
2022/03/22 05:27:15;;;;;;;52.15;38.08;;;5.70;99.90;;;;;;5030637;28;20108;-67
2022/03/22 05:29:42;;;;;;;57.75;39.22;;;5.60;99.90;;;;;;5017725;28;20049;-67
2022/03/22 05:32:08;;;;;;;69.55;39.33;;;6.20;99.90;;;;;;5013109;28;20577;-67
2022/03/22 05:34:34;;;;;;;55.85;39.20;;;;;;;;;;4996803;28;20045;-67
2022/03/22 05:37:00;;;;;;;55.60;39.15;;;;;;;;;;5027408;28;20404;-67
2022/03/22 05:39:27;;;;;;;59.03;39.08;;;;;;;;;;5028979;28;20043;-67
2022/03/22 05:41:52;;;;;;;58.42;38.42;;;5.00;99.90;;;;;;5031041;28;20388;-67
2022/03/22 05:44:21;;;;;;;56.78;37.72;;;5.70;99.90;;;;;;5030358;28;20120;-67
2022/03/22 05:46:46;;;;;;;57.15;37.95;;;5.40;99.90;;;;;;5031764;28;20037;-67
2022/03/22 05:49:13;;;;;;;53.53;36.83;;;;;;;;;;5031439;28;20068;-67
2022/03/22 05:51:39;;;;;;;57.30;38.13;;;5.50;99.90;;;;;;5013888;28;20049;-67
2022/03/22 05:54:05;;;;;;;58.35;37.67;;;5.90;99.90;;;;;;5031374;28;20042;-67
2022/03/22 05:56:31;;;;;;;54.38;36.13;;;6.00;99.90;;;;;;5012430;28;20059;-67
2022/03/22 05:58:59;;;;;;;54.35;36.55;;;;;;;;;;5012706;28;20469;-67
2022/03/22 06:01:25;;;;;;;57.17;36.42;;;6.00;99.90;;;;;;5013370;28;20034;-67
2022/03/22 06:03:51;;;;;;;55.00;36.58;;;;;;;;;;5013709;28;20064;-67
2022/03/22 06:06:17;;;;;;;53.78;34.88;;;;;;;;;;5031246;28;20532;-67
2022/03/22 06:08:45;;;;;;;53.05;35.22;;;6.00;99.90;;;;;;5031483;28;20040;-67
2022/03/22 06:11:11;;;;;;;51.92;34.17;;;6.40;99.90;;;;;;5030952;28;20107;-67
2022/03/22 06:13:37;;;;;;;50.75;34.30;;;6.70;99.90;;;;;;5030637;28;20563;-67
2022/03/22 06:16:05;;;;;;;55.35;34.70;;;6.40;99.90;;;;;;5013000;28;20037;-67
2022/03/22 06:18:31;;;;;;;53.28;33.22;;;;;;;;;;5031114;28;20386;-67
2022/03/22 06:20:57;;;;;;;50.78;32.78;;;;;;;;;;5029700;28;20041;-68
2022/03/22 06:23:23;;;;;;;49.92;31.65;;;;;;;;;;5012890;28;20510;-66
2022/03/22 06:25:51;;;;;;;48.78;32.13;;;;;;;;;;5030810;28;20485;-67
2022/03/22 06:28:18;;;;;;;49.92;32.03;;;;;;;;;;5011830;28;20458;-67
2022/03/22 06:30:44;;;;;;;46.70;31.10;;;8.20;99.90;;;;;;5030703;28;20063;-67
2022/03/22 06:33:16;;;;;;;42.25;29.52;;;8.40;99.90;;;;;;5013153;28;20045;-67
2022/03/22 06:35:43;;;;;;;44.75;30.95;;;9.40;99.90;;;;;;5031157;28;20125;-67
2022/03/22 06:38:09;;;;;;;43.83;30.38;;;;;;;;;;5028936;28;20052;-67
2022/03/22 06:40:37;;;;;;;46.55;29.83;;;;;;;;;;5030348;28;20045;-67
2022/03/22 06:43:05;;;;;;;44.90;29.45;;;10.00;99.90;;;;;;5012319;28;20492;-67
2022/03/22 06:45:31;;;;;;;46.88;29.33;;;;;;;;;;5012284;28;20053;-67
2022/03/22 06:47:57;;;;;;;40.20;28.77;;;10.30;99.90;;;;;;5012823;28;20045;-66
2022/03/22 06:50:24;;;;;;;42.50;29.98;;;10.00;99.90;;;;;;5029719;28;20500;-67
2022/03/22 06:52:50;;;;;;;43.10;29.25;;;;;;;;;;5013249;28;20049;-67
2022/03/22 06:55:18;;;;;;;43.67;29.10;;;9.90;99.90;;;;;;5030377;28;20041;-67
2022/03/22 06:57:44;;;;;;;47.53;29.38;;;10.10;99.90;;;;;;5012440;28;20120;-67
2022/03/22 07:00:15;;;;;;;44.78;28.67;;;9.90;99.90;;;;;;5028874;28;20037;-67
2022/03/22 07:02:41;;;;;;;45.92;29.88;;;9.90;99.90;;;;;;5028844;28;20505;-67
2022/03/22 07:05:11;;;;;;;54.85;28.80;;;10.20;99.90;;;;;;5029797;28;20080;-67
2022/03/22 07:07:38;;;;;;;49.00;29.55;;;10.20;99.90;;;;;;5012213;28;20045;-67
2022/03/22 07:10:09;;;;;;;52.75;29.10;;;10.20;99.90;;;;;;5012236;28;20043;-67
2022/03/22 07:12:51;;;;;;;47.80;28.27;;;9.80;99.90;;;;;;5028787;28;20038;-67
2022/03/22 07:15:17;;;;;;;45.15;28.95;;;;;;;;;;5011625;28;20046;-67
2022/03/22 07:17:43;;;;;;;57.80;29.20;;;;;;;;;;5030114;28;20065;-67
2022/03/22 07:20:09;;;;;;;49.60;27.90;;;;;;;;;;5029537;28;20044;-67
2022/03/22 07:22:35;;;;;;;44.35;27.15;;;10.40;99.90;;;;;;5012327;28;20091;-68
2022/03/22 07:25:01;;;;;;;42.95;27.90;;;;;;;;;;5029521;28;20045;-67
2022/03/22 07:27:27;;;;;;;37.60;27.50;;;10.10;99.90;;;;;;5030033;28;20042;-67
2022/03/22 07:29:53;;;;;;;44.78;27.38;;;10.50;99.90;;;;;;5012382;28;20397;-67
2022/03/22 07:32:19;;;;;;;42.58;28.58;;;10.20;99.90;;;;;;5012040;28;20040;-67
2022/03/22 07:34:45;;;;;;;45.00;28.50;;;;;;;;;;5030583;28;20107;-67
2022/03/22 07:37:12;;;;;;;40.95;28.02;;;10.70;99.90;;;;;;5028209;28;20072;-66
2022/03/22 07:39:38;;;;;;;43.17;27.55;;;;;;;;;;5029302;28;20045;-67
2022/03/22 07:42:04;;;;;;;59.28;27.52;;;11.00;99.90;;;;;;5029843;28;20396;-67
2022/03/22 07:44:31;;;;;;;38.00;26.20;;;;;;;;;;5029354;28;20045;-67
2022/03/22 07:46:57;;;;;;;43.05;27.85;;;11.10;99.90;;;;;;5012411;28;20084;-68
2022/03/22 07:54:52;;;;;;;52.40;26.70;;;;;;;;;;5029339;28;20057;-67
2022/03/22 07:57:19;;;;;;;45.10;27.38;;;;;;;;;;5011980;28;20045;-67
2022/03/22 07:59:45;;;;;;;44.20;26.70;;;12.00;99.90;;;;;;5013735;28;20338;-67
2022/03/22 08:02:10;;;;;;;42.78;26.25;;;10.90;99.90;;;;;;5033458;28;20056;-67
2022/03/22 08:04:36;;;;;;;41.13;26.45;;;;;;;;;;5032867;28;20053;-67
2022/03/22 08:07:02;;;;;;;44.25;26.67;;;11.50;99.90;;;;;;5015577;28;20164;-67
2022/03/22 08:09:28;;;;;;;45.30;26.35;;;11.40;99.90;;;;;;5015445;28;20156;-67
2022/03/22 08:11:54;;;;;;;42.70;26.50;;;11.50;99.90;;;;;;5033768;28;20392;-67
2022/03/22 08:14:20;;;;;;;39.97;25.67;;;;;;;;;;5032398;28;20481;-67
2022/03/22 08:16:47;;;;;;;37.55;25.88;;;11.70;99.90;;;;;;5033674;28;20042;-67
2022/03/22 08:19:17;;;;;;;35.08;25.80;;;11.80;99.90;;;;;;5033632;28;20083;-67
2022/03/22 08:21:43;;;;;;;43.85;26.55;;;;;;;;;;5032934;28;20048;-67
2022/03/22 08:24:10;;;;;;;43.63;25.88;;;;;;;;;;5033121;28;20042;-67
2022/03/22 08:26:36;;;;;;;52.60;25.98;;;13.90;98.00;;;;;;5032983;28;20041;-67
2022/03/22 08:29:03;;;;;;;50.00;26.40;;;;;;;;;;5033507;28;20128;-67
2022/03/22 08:31:29;;;;;;;35.72;25.42;;;14.90;95.60;;;;;;5015233;28;20037;-67
2022/03/22 08:33:56;;;;;;;35.42;24.92;;;15.30;94.40;;;;;;5033149;28;20042;-67
2022/03/22 08:36:22;;;;;;;31.00;24.08;;;15.40;82.50;;;;;;5014702;28;20057;-67
2022/03/22 08:38:49;;;;;;;36.70;23.60;;;15.60;93.00;;;;;;5033482;28;20095;-67
2022/03/22 08:41:16;;;;;;;39.65;24.77;;;;;;;;;;5032700;28;20044;-67
2022/03/22 08:43:42;;;;;;;37.33;23.50;;;15.70;91.90;;;;;;5032885;28;20033;-67
2022/03/22 08:46:08;;;;;;;45.90;24.48;;;15.30;91.90;;;;;;5032703;28;20060;-67
2022/03/22 08:48:37;;;;;;;43.35;23.98;;;;;;;;;;5032836;28;20038;-67
2022/03/22 08:51:04;;;;;;;117.20;27.02;;;16.40;92.40;;;;;;5032609;28;20125;-67
2022/03/22 08:53:31;;;;;;;39.03;23.63;;;16.20;92.10;;;;;;5014640;28;20038;-67
2022/03/22 08:55:57;;;;;;;35.88;23.05;;;;;;;;;;5015207;28;20060;-67
2022/03/22 08:58:22;;;;;;;35.20;24.02;;;16.10;91.80;;;;;;5032502;28;20053;-68
2022/03/22 09:00:48;;;;;;;36.47;23.63;;;;;;;;;;5032460;28;20045;-68
2022/03/22 09:03:15;;;;;;;33.53;23.67;;;;;;;;;;5032145;28;20061;-68
2022/03/22 09:08:25;;;;;;;36.63;22.92;;;15.80;82.60;;;;;;5014176;28;20053;-68
2022/03/22 09:10:51;;;;;;;32.33;22.40;;;16.50;91.20;;;;;;5032152;28;20037;-69
2022/03/22 09:13:18;;;;;;;35.33;22.63;;;16.20;71.70;;;;;;5031858;28;20044;-68
2022/03/22 09:15:46;;;;;;;42.85;23.38;;;16.50;90.80;;;;;;5032334;28;20072;-69
2022/03/22 09:18:16;;;;;;;37.60;22.65;;;16.50;90.90;;;;;;5032100;28;20120;-69
2022/03/22 09:20:43;;;;;;;35.70;22.30;;;16.90;70.90;;;;;;5031536;28;20045;-69
2022/03/22 09:23:09;;;;;;;35.33;22.33;;;17.20;90.70;;;;;;5032068;28;20041;-69
2022/03/22 09:25:36;;;;;;;34.25;22.23;;;17.20;91.60;;;;;;5032001;28;20469;-69
2022/03/22 09:28:04;;;;;;;36.00;21.77;;;;;;;;;;5032543;28;20037;-69
2022/03/22 09:30:31;;;;;;;37.22;20.55;;;;;;;;;;5014171;28;20048;-69
2022/03/22 09:32:57;;;;;;;43.83;22.98;;;17.70;78.50;;;;;;5014741;28;20421;-69
2022/03/22 09:35:23;;;;;;;42.55;22.85;;;17.80;90.80;;;;;;5013564;28;20092;-69
2022/03/22 09:37:50;;;;;;;38.58;22.20;;;17.60;66.60;;;;;;5031910;28;20564;-70
2022/03/22 09:40:18;;;;;;;33.92;21.42;;;17.50;67.60;;;;;;5031353;28;20052;-69
2022/03/22 09:42:46;;;;;;;36.92;22.30;;;17.50;66.80;;;;;;5014317;28;20045;-69
2022/03/22 09:45:18;;;;;;;41.65;22.20;;;17.50;67.20;;;;;;5014026;28;20053;-70
2022/03/22 09:47:45;;;;;;;37.38;21.17;;;17.50;94.10;;;;;;5031286;28;20041;-70
2022/03/22 09:50:13;;;;;;;35.70;21.20;;;17.40;68.30;;;;;;5013466;28;20111;-70
2022/03/22 09:52:39;;;;;;;82.65;24.75;;;;;;;;;;5014223;28;20048;-70
2022/03/22 09:55:07;;;;;;;44.63;22.30;;;17.70;68.70;;;;;;5014025;28;20051;-70
2022/03/22 09:57:36;;;;;;;46.00;21.33;;;17.30;68.20;;;;;;5031515;28;20045;-70
2022/03/22 10:00:02;;;;;;;34.47;21.02;;;;;;;;;;5013634;28;20511;-70
2022/03/22 10:02:32;;;;;;;35.58;21.60;;;17.80;68.00;;;;;;5031031;28;20057;-70
2022/03/22 10:04:59;;;;;;;31.88;20.88;;;17.30;67.30;;;;;;5031308;28;20053;-68
2022/03/22 10:07:29;;;;;;;34.50;20.13;;;;;;;;;;5031106;28;20103;-68
2022/03/22 10:10:04;;;;;;;33.00;19.65;;;17.20;66.30;;;;;;5031582;28;20535;-67
2022/03/22 10:12:34;;;;;;;43.40;21.15;;;17.30;79.00;;;;;;5031477;28;20378;-67
2022/03/22 10:15:16;;;;;;;36.17;21.45;;;17.20;64.30;;;;;;5031260;28;20037;-68
2022/03/22 10:17:43;;;;;;;35.53;20.20;;;17.10;65.90;;;;;;5031451;28;20451;-67
2022/03/22 10:20:21;;;;;;;35.42;20.63;;;17.30;68.70;;;;;;5030435;28;20066;-67
2022/03/22 10:22:54;;;;;;;31.98;20.90;;;17.20;66.20;;;;;;5030762;28;20477;-68
2022/03/22 10:25:21;;;;;;;31.80;20.33;;;;;;;;;;5030686;28;20061;-67
2022/03/22 10:27:47;;;;;;;35.20;21.50;;;;;;;;;;5031029;28;20556;-67
2022/03/22 10:30:13;;;;;;;30.40;20.73;;;;;;;;;;5013545;28;20049;-68
2022/03/22 10:32:41;;;;;;;29.50;20.95;;;17.40;66.10;;;;;;5030729;28;20440;-68
2022/03/22 10:35:22;;;;;;;32.60;21.30;;;17.30;65.20;;;;;;5030500;28;20505;-68
2022/03/22 10:37:54;;;;;;;32.90;20.50;;;17.30;65.90;;;;;;5030879;28;20493;-68
2022/03/22 10:40:22;;;;;;;37.28;21.30;;;17.40;72.30;;;;;;5030637;28;20049;-68
2022/03/22 10:42:54;;;;;;;37.08;21.30;;;17.20;65.50;;;;;;5013177;28;20045;-68
2022/03/22 10:45:20;;;;;;;32.65;20.73;;;;;;;;;;5030315;28;20441;-68
2022/03/22 10:47:47;;;;;;;37.38;20.85;;;;;;;;;;5030120;28;20041;-68
2022/03/22 10:50:13;;;;;;;34.03;20.80;;;;;;;;;;5030498;28;20103;-68
2022/03/22 10:52:49;;;;;;;38.90;20.70;;;17.70;64.00;;;;;;5012946;28;20041;-68
2022/03/22 10:55:19;;;;;;;38.83;22.20;;;;;;;;;;5029735;28;20235;-68
2022/03/22 10:57:47;;;;;;;39.22;21.40;;;17.70;92.20;;;;;;5031011;28;20049;-67
2022/03/22 11:00:14;;;;;;;38.58;21.13;;;;;;;;;;5030293;28;20038;-68
2022/03/22 11:02:41;;;;;;;37.65;21.20;;;17.70;72.50;;;;;;5024831;28;20553;-68
2022/03/22 11:05:08;;;;;;;37.30;21.27;;;17.70;66.20;;;;;;5010206;28;20202;-68
2022/03/22 11:07:40;;;;;;;37.30;21.02;;;17.70;91.20;;;;;;5010713;28;20037;-68
2022/03/22 11:10:06;;;;;;;35.20;20.60;;;;;;;;;;4992901;28;20042;-67
2022/03/22 11:12:33;;;;;;;35.83;20.52;;;17.90;60.30;;;;;;5010870;28;20045;-68
2022/03/22 11:15:01;;;;;;;34.00;21.05;;;17.50;60.30;;;;;;5010932;28;20096;-68
2022/03/22 11:17:34;;;;;;;36.20;20.02;;;18.10;61.80;;;;;;5009932;28;20120;-68
2022/03/22 11:20:04;;;;;;;35.60;21.02;;;18.20;61.10;;;;;;4994333;28;20379;-68
2022/03/22 11:22:31;;;;;;;44.88;24.10;;;18.50;72.00;;;;;;4993286;28;20049;-69
2022/03/22 11:25:08;;;;;;;41.58;23.25;;;18.40;61.20;;;;;;5010776;28;20444;-68
2022/03/22 11:27:35;;;;;;;36.40;21.67;;;;;;;;;;5010286;28;20057;-68
2022/03/22 11:30:06;;;;;;;32.97;21.13;;;18.30;60.00;;;;;;4992612;28;20048;-68
2022/03/22 11:35:18;;;;;;;35.47;21.73;;;18.50;60.10;;;;;;4995003;28;20064;-68
2022/03/22 11:38:00;;;;;;;35.65;22.13;;;18.70;59.60;;;;;;4997020;28;20041;-68
2022/03/22 11:43:15;;;;;;;34.28;20.92;;;18.80;59.90;;;;;;4996717;28;20056;-67
2022/03/22 11:45:50;;;;;;;34.72;21.90;;;17.90;88.40;;;;;;4996247;28;20049;-68
2022/03/22 11:48:17;;;;;;;34.33;21.05;;;18.90;58.70;;;;;;5012750;28;20045;-68
2022/03/22 11:50:45;;;;;;;42.80;22.73;;;18.80;59.00;;;;;;5014299;28;20038;-67
2022/03/22 11:53:20;;;;;;;31.35;20.88;;;19.10;89.20;;;;;;5014208;28;20042;-68
2022/03/22 11:55:52;;;;;;;39.50;20.90;;;19.50;89.70;;;;;;4996469;28;20046;-68
2022/03/22 11:58:20;;;;;;;38.40;21.40;;;19.70;89.10;;;;;;4996358;28;20462;-68
2022/03/22 12:00:56;;;;;;;36.13;19.27;;;19.60;88.20;;;;;;5013970;28;20042;-68
2022/03/22 12:03:28;;;;;;;37.25;20.70;;;19.50;57.70;;;;;;5013353;28;20076;-68
2022/03/22 12:05:54;;;;;;;36.08;19.90;;;19.80;79.10;;;;;;5014080;28;20060;-68
2022/03/22 12:08:20;;;;;;;34.65;19.92;;;19.70;56.20;;;;;;5013806;28;20064;-68
2022/03/22 12:10:51;;;;;;;34.67;19.33;;;20.70;76.40;;;;;;4996176;28;20058;-68
2022/03/22 12:13:18;;;;;;;32.03;19.80;;;19.70;55.10;;;;;;5013225;28;20037;-67
2022/03/22 12:15:43;;;;;;;28.10;18.77;;;20.50;84.20;;;;;;4995751;28;20074;-68
2022/03/22 12:18:11;;;;;;;34.88;18.88;;;19.60;54.60;;;;;;5013261;28;20074;-68
2022/03/22 12:20:37;;;;;;;33.42;19.63;;;19.70;54.20;;;;;;5013080;28;20054;-68
2022/03/22 12:23:04;;;;;;;32.78;19.42;;;;;;;;;;4995882;28;20091;-68
2022/03/22 12:25:31;;;;;;;37.22;19.20;;;19.90;55.20;;;;;;5013321;28;20045;-68
2022/03/22 12:28:00;;;;;;;32.40;19.45;;;20.40;55.90;;;;;;5013566;28;20046;-68
2022/03/22 12:30:35;;;;;;;36.38;18.75;;;20.10;55.20;;;;;;5011888;28;20083;-68
2022/03/22 12:33:14;;;;;;;39.58;18.45;;;20.10;54.00;;;;;;4995965;28;20046;-68
2022/03/22 12:35:40;;;;;;;32.60;19.08;;;;;;;;;;5013473;28;20042;-68
2022/03/22 12:38:07;;;;;;;37.50;19.40;;;;;;;;;;5013055;28;20069;-68
2022/03/22 12:40:33;;;;;;;32.58;19.75;;;20.40;83.40;;;;;;5012777;28;20053;-68
2022/03/22 12:42:59;;;;;;;29.85;18.70;;;20.50;81.70;;;;;;5013170;28;20038;-68
2022/03/22 12:45:27;;;;;;;27.02;18.80;;;20.40;54.20;;;;;;5004091;28;20037;-68
2022/03/22 12:47:53;;;;;;;36.03;19.30;;;;;;;;;;5012868;28;20038;-68
2022/03/22 12:50:21;;;;;;;29.55;18.50;;;21.40;62.70;;;;;;5011436;28;20044;-68
2022/03/22 12:52:47;;;;;;;32.47;18.98;;;;;;;;;;5013352;28;20045;-68
2022/03/22 12:55:15;;;;;;;37.25;18.33;;;20.80;79.30;;;;;;4995207;28;20539;-68
2022/03/22 12:57:44;;;;;;;30.13;18.67;;;20.60;79.60;;;;;;4995307;28;20054;-68
2022/03/22 13:00:31;;;;;;;34.25;18.77;;;20.50;78.50;;;;;;5012335;28;20050;-67
2022/03/22 13:03:05;;;;;;;39.85;20.17;;;20.70;51.60;;;;;;5012818;28;20112;-68
2022/03/22 13:05:31;;;;;;;35.22;19.05;;;20.90;80.30;;;;;;4995046;28;20056;-68
2022/03/22 13:07:58;;;;;;;34.00;19.75;;;20.80;65.60;;;;;;5012544;28;20042;-68
2022/03/22 13:13:17;;;;;;;38.28;19.10;;;20.80;51.70;;;;;;5012585;28;20053;-67
2022/03/22 13:15:47;;;;;;;42.47;19.88;;;19.90;66.60;;;;;;5012699;28;20041;-68
2022/03/22 13:18:13;;;;;;;40.22;20.75;;;19.70;66.20;;;;;;5012702;28;20152;-68
2022/03/22 13:20:41;;;;;;;37.05;19.65;;;21.50;78.80;;;;;;5011828;28;20659;-68
2022/03/22 13:23:08;;;;;;;37.45;20.10;;;21.30;61.70;;;;;;5012638;28;20042;-68
2022/03/22 13:25:39;;;;;;;38.40;20.13;;;21.70;57.70;;;;;;5012196;28;20070;-68
2022/03/22 13:28:13;;;;;;;35.88;20.35;;;21.90;78.20;;;;;;5011926;28;20048;-67
2022/03/22 13:30:47;;;;;;;29.58;19.25;;;21.00;77.40;;;;;;5012178;28;20046;-68
2022/03/22 13:33:21;;;;;;;37.90;20.10;;;21.00;50.50;;;;;;4994851;28;20469;-68